sensor_id;sensor_type;location;lat;lon;timestamp;temperature;humidity
148;DHT22;142;50.652;12.216;2022-12-18T00:02:25;-8.50;44.50
148;DHT22;142;50.652;12.216;2022-12-18T00:04:52;-8.50;44.50
148;DHT22;142;50.652;12.216;2022-12-18T00:07:20;-8.60;44.50
148;DHT22;142;50.652;12.216;2022-12-18T00:09:47;-8.60;44.40
148;DHT22;142;50.652;12.216;2022-12-18T00:12:14;-8.60;44.40
148;DHT22;142;50.652;12.216;2022-12-18T00:14:41;-8.60;44.50
148;DHT22;142;50.652;12.216;2022-12-18T00:17:08;-8.70;44.40
148;DHT22;142;50.652;12.216;2022-12-18T00:19:35;-8.70;44.40
148;DHT22;142;50.652;12.216;2022-12-18T00:22:03;-8.60;44.40
148;DHT22;142;50.652;12.216;2022-12-18T00:24:32;-8.60;44.50
148;DHT22;142;50.652;12.216;2022-12-18T00:26:59;-8.60;44.50
148;DHT22;142;50.652;12.216;2022-12-18T00:29:26;-8.70;44.50
148;DHT22;142;50.652;12.216;2022-12-18T00:31:54;-8.70;44.40
148;DHT22;142;50.652;12.216;2022-12-18T00:34:21;-8.70;44.40
148;DHT22;142;50.652;12.216;2022-12-18T00:36:49;-8.70;44.40
148;DHT22;142;50.652;12.216;2022-12-18T00:39:16;-8.70;44.40
148;DHT22;142;50.652;12.216;2022-12-18T00:41:45;-8.70;44.40
148;DHT22;142;50.652;12.216;2022-12-18T00:44:29;-8.80;44.50
148;DHT22;142;50.652;12.216;2022-12-18T00:46:56;-8.90;44.40
148;DHT22;142;50.652;12.216;2022-12-18T00:49:23;-8.90;44.40
148;DHT22;142;50.652;12.216;2022-12-18T00:51:50;-8.90;44.40
148;DHT22;142;50.652;12.216;2022-12-18T00:54:17;-9.00;44.30
148;DHT22;142;50.652;12.216;2022-12-18T00:56:46;-8.90;44.40
148;DHT22;142;50.652;12.216;2022-12-18T00:59:13;-9.00;44.30
148;DHT22;142;50.652;12.216;2022-12-18T01:01:40;-9.00;44.40
148;DHT22;142;50.652;12.216;2022-12-18T01:04:08;-8.90;44.50
148;DHT22;142;50.652;12.216;2022-12-18T01:06:35;-9.00;44.40
148;DHT22;142;50.652;12.216;2022-12-18T01:09:03;-9.00;44.40
148;DHT22;142;50.652;12.216;2022-12-18T01:11:30;-9.00;44.40
148;DHT22;142;50.652;12.216;2022-12-18T01:13:59;-9.00;44.40
148;DHT22;142;50.652;12.216;2022-12-18T01:16:26;-9.10;44.50
148;DHT22;142;50.652;12.216;2022-12-18T01:18:54;-9.10;44.40
148;DHT22;142;50.652;12.216;2022-12-18T01:21:22;-9.10;44.40
148;DHT22;142;50.652;12.216;2022-12-18T01:23:53;-9.10;44.40
148;DHT22;142;50.652;12.216;2022-12-18T01:26:21;-9.10;44.40
148;DHT22;142;50.652;12.216;2022-12-18T01:28:48;-9.10;44.50
148;DHT22;142;50.652;12.216;2022-12-18T01:31:18;-9.20;44.50
148;DHT22;142;50.652;12.216;2022-12-18T01:33:47;-9.20;44.40
148;DHT22;142;50.652;12.216;2022-12-18T01:36:19;-9.30;44.30
148;DHT22;142;50.652;12.216;2022-12-18T01:38:47;-9.30;44.30
148;DHT22;142;50.652;12.216;2022-12-18T01:41:16;-9.20;44.40
148;DHT22;142;50.652;12.216;2022-12-18T01:43:45;-9.20;44.40
148;DHT22;142;50.652;12.216;2022-12-18T01:46:13;-9.20;44.40
148;DHT22;142;50.652;12.216;2022-12-18T01:48:42;-9.30;44.40
148;DHT22;142;50.652;12.216;2022-12-18T01:51:11;-9.30;44.40
148;DHT22;142;50.652;12.216;2022-12-18T01:53:41;-9.30;44.40
148;DHT22;142;50.652;12.216;2022-12-18T01:56:12;-9.30;44.40
148;DHT22;142;50.652;12.216;2022-12-18T01:58:46;-9.30;44.40
148;DHT22;142;50.652;12.216;2022-12-18T02:01:14;-9.30;44.60
148;DHT22;142;50.652;12.216;2022-12-18T02:03:43;-9.40;44.40
148;DHT22;142;50.652;12.216;2022-12-18T02:06:14;-9.30;44.30
148;DHT22;142;50.652;12.216;2022-12-18T02:08:49;-9.30;44.40
148;DHT22;142;50.652;12.216;2022-12-18T02:11:23;-9.30;44.40
148;DHT22;142;50.652;12.216;2022-12-18T02:14:00;-9.40;44.40
148;DHT22;142;50.652;12.216;2022-12-18T02:16:38;-9.40;44.40
148;DHT22;142;50.652;12.216;2022-12-18T02:19:20;-9.40;44.40
148;DHT22;142;50.652;12.216;2022-12-18T02:21:57;-9.40;44.40
148;DHT22;142;50.652;12.216;2022-12-18T02:24:32;-9.30;44.40
148;DHT22;142;50.652;12.216;2022-12-18T02:27:05;-9.40;44.40
148;DHT22;142;50.652;12.216;2022-12-18T02:29:38;-9.40;44.40
148;DHT22;142;50.652;12.216;2022-12-18T02:32:10;-9.40;44.40
148;DHT22;142;50.652;12.216;2022-12-18T02:34:40;-9.40;44.60
148;DHT22;142;50.652;12.216;2022-12-18T02:37:11;-9.40;44.60
148;DHT22;142;50.652;12.216;2022-12-18T02:39:42;-9.50;44.50
148;DHT22;142;50.652;12.216;2022-12-18T02:42:12;-9.50;44.50
148;DHT22;142;50.652;12.216;2022-12-18T02:44:43;-9.60;44.50
148;DHT22;142;50.652;12.216;2022-12-18T02:47:12;-9.70;44.40
148;DHT22;142;50.652;12.216;2022-12-18T02:49:47;-9.70;44.40
148;DHT22;142;50.652;12.216;2022-12-18T02:52:21;-9.70;44.50
148;DHT22;142;50.652;12.216;2022-12-18T02:54:57;-9.70;44.50
148;DHT22;142;50.652;12.216;2022-12-18T02:57:33;-9.80;44.50
148;DHT22;142;50.652;12.216;2022-12-18T03:00:05;-9.80;44.50
148;DHT22;142;50.652;12.216;2022-12-18T03:02:39;-9.80;44.50
148;DHT22;142;50.652;12.216;2022-12-18T03:05:13;-9.80;44.50
148;DHT22;142;50.652;12.216;2022-12-18T03:07:46;-9.80;44.50
148;DHT22;142;50.652;12.216;2022-12-18T03:10:21;-9.80;44.50
148;DHT22;142;50.652;12.216;2022-12-18T03:12:55;-9.80;44.50
148;DHT22;142;50.652;12.216;2022-12-18T03:15:27;-9.90;44.60
148;DHT22;142;50.652;12.216;2022-12-18T03:18:00;-9.90;44.60
148;DHT22;142;50.652;12.216;2022-12-18T03:20:29;-10.00;44.60
148;DHT22;142;50.652;12.216;2022-12-18T03:23:02;-10.00;44.40
148;DHT22;142;50.652;12.216;2022-12-18T03:25:32;-10.00;44.50
148;DHT22;142;50.652;12.216;2022-12-18T03:28:03;-10.00;44.50
148;DHT22;142;50.652;12.216;2022-12-18T03:30:36;-10.00;44.50
148;DHT22;142;50.652;12.216;2022-12-18T03:33:08;-10.00;44.40
148;DHT22;142;50.652;12.216;2022-12-18T03:35:38;-10.00;44.40
148;DHT22;142;50.652;12.216;2022-12-18T03:38:06;-9.90;44.50
148;DHT22;142;50.652;12.216;2022-12-18T03:40:42;-9.90;44.50
148;DHT22;142;50.652;12.216;2022-12-18T03:43:17;-10.00;44.50
148;DHT22;142;50.652;12.216;2022-12-18T03:45:50;-10.00;44.50
148;DHT22;142;50.652;12.216;2022-12-18T03:48:24;-10.00;44.60
148;DHT22;142;50.652;12.216;2022-12-18T03:50:57;-10.10;44.60
148;DHT22;142;50.652;12.216;2022-12-18T03:53:32;-10.20;44.70
148;DHT22;142;50.652;12.216;2022-12-18T03:56:03;-10.30;44.50
148;DHT22;142;50.652;12.216;2022-12-18T03:58:33;-10.30;44.40
148;DHT22;142;50.652;12.216;2022-12-18T04:01:07;-10.20;44.40
148;DHT22;142;50.652;12.216;2022-12-18T04:03:37;-10.20;44.40
148;DHT22;142;50.652;12.216;2022-12-18T04:06:06;-10.10;44.50
148;DHT22;142;50.652;12.216;2022-12-18T04:08:34;-10.10;44.60
148;DHT22;142;50.652;12.216;2022-12-18T04:11:02;-10.20;44.50
148;DHT22;142;50.652;12.216;2022-12-18T04:13:34;-10.20;44.50
148;DHT22;142;50.652;12.216;2022-12-18T04:16:02;-10.20;44.50
148;DHT22;142;50.652;12.216;2022-12-18T04:18:29;-10.20;44.50
148;DHT22;142;50.652;12.216;2022-12-18T04:20:57;-10.20;44.60
148;DHT22;142;50.652;12.216;2022-12-18T04:23:26;-10.20;44.70
148;DHT22;142;50.652;12.216;2022-12-18T04:25:54;-10.30;44.60
148;DHT22;142;50.652;12.216;2022-12-18T04:28:22;-10.30;44.40
148;DHT22;142;50.652;12.216;2022-12-18T04:30:50;-10.30;44.60
148;DHT22;142;50.652;12.216;2022-12-18T04:33:17;-10.30;44.60
148;DHT22;142;50.652;12.216;2022-12-18T04:35:45;-10.30;44.60
148;DHT22;142;50.652;12.216;2022-12-18T04:38:13;-10.30;44.60
148;DHT22;142;50.652;12.216;2022-12-18T04:40:40;-10.30;44.60
148;DHT22;142;50.652;12.216;2022-12-18T04:43:07;-10.30;44.50
148;DHT22;142;50.652;12.216;2022-12-18T04:45:34;-10.30;44.60
148;DHT22;142;50.652;12.216;2022-12-18T04:48:03;-10.30;44.70
148;DHT22;142;50.652;12.216;2022-12-18T04:50:31;-10.30;44.60
148;DHT22;142;50.652;12.216;2022-12-18T04:52:59;-10.30;44.40
148;DHT22;142;50.652;12.216;2022-12-18T04:55:26;-10.30;44.60
148;DHT22;142;50.652;12.216;2022-12-18T04:57:54;-10.30;44.60
148;DHT22;142;50.652;12.216;2022-12-18T05:00:21;-10.40;44.60
148;DHT22;142;50.652;12.216;2022-12-18T05:02:49;-10.40;44.60
148;DHT22;142;50.652;12.216;2022-12-18T05:05:18;-10.50;44.70
148;DHT22;142;50.652;12.216;2022-12-18T05:07:45;-10.50;44.60
148;DHT22;142;50.652;12.216;2022-12-18T05:10:12;-10.60;44.50
148;DHT22;142;50.652;12.216;2022-12-18T05:12:39;-10.60;44.60
148;DHT22;142;50.652;12.216;2022-12-18T05:15:20;-10.70;44.60
148;DHT22;142;50.652;12.216;2022-12-18T05:17:47;-10.70;44.60
148;DHT22;142;50.652;12.216;2022-12-18T05:20:14;-10.80;44.60
148;DHT22;142;50.652;12.216;2022-12-18T05:22:43;-10.80;44.50
148;DHT22;142;50.652;12.216;2022-12-18T05:25:10;-10.80;44.50
148;DHT22;142;50.652;12.216;2022-12-18T05:27:37;-10.80;44.60
148;DHT22;142;50.652;12.216;2022-12-18T05:30:05;-10.80;44.70
148;DHT22;142;50.652;12.216;2022-12-18T05:32:32;-10.80;44.60
148;DHT22;142;50.652;12.216;2022-12-18T05:35:00;-10.80;44.60
148;DHT22;142;50.652;12.216;2022-12-18T05:37:27;-10.80;44.60
148;DHT22;142;50.652;12.216;2022-12-18T05:39:55;-10.80;44.60
148;DHT22;142;50.652;12.216;2022-12-18T05:42:22;-10.90;44.60
148;DHT22;142;50.652;12.216;2022-12-18T05:44:49;-10.90;44.50
148;DHT22;142;50.652;12.216;2022-12-18T05:47:17;-10.90;44.50
148;DHT22;142;50.652;12.216;2022-12-18T05:49:43;-10.90;44.60
148;DHT22;142;50.652;12.216;2022-12-18T05:52:11;-10.90;44.60
148;DHT22;142;50.652;12.216;2022-12-18T05:54:38;-10.90;44.60
148;DHT22;142;50.652;12.216;2022-12-18T05:57:06;-10.90;44.60
148;DHT22;142;50.652;12.216;2022-12-18T05:59:33;-10.90;44.60
148;DHT22;142;50.652;12.216;2022-12-18T06:02:00;-10.90;44.60
148;DHT22;142;50.652;12.216;2022-12-18T06:04:27;-10.90;44.50
148;DHT22;142;50.652;12.216;2022-12-18T06:06:55;-10.90;44.60
148;DHT22;142;50.652;12.216;2022-12-18T06:09:22;-10.90;44.50
148;DHT22;142;50.652;12.216;2022-12-18T06:11:51;-10.90;44.60
148;DHT22;142;50.652;12.216;2022-12-18T06:14:20;-10.90;44.60
148;DHT22;142;50.652;12.216;2022-12-18T06:16:47;-10.90;44.60
148;DHT22;142;50.652;12.216;2022-12-18T06:19:15;-10.90;44.60
148;DHT22;142;50.652;12.216;2022-12-18T06:21:42;-10.90;44.70
148;DHT22;142;50.652;12.216;2022-12-18T06:24:10;-10.90;44.60
148;DHT22;142;50.652;12.216;2022-12-18T06:26:37;-10.90;44.60
148;DHT22;142;50.652;12.216;2022-12-18T06:29:05;-10.90;44.60
148;DHT22;142;50.652;12.216;2022-12-18T06:31:34;-10.90;44.60
148;DHT22;142;50.652;12.216;2022-12-18T06:34:03;-11.00;44.70
148;DHT22;142;50.652;12.216;2022-12-18T06:36:30;-10.90;44.60
148;DHT22;142;50.652;12.216;2022-12-18T06:38:57;-10.90;44.60
148;DHT22;142;50.652;12.216;2022-12-18T06:41:25;-11.00;44.60
148;DHT22;142;50.652;12.216;2022-12-18T06:43:52;-10.90;44.60
148;DHT22;142;50.652;12.216;2022-12-18T06:46:19;-10.90;44.60
148;DHT22;142;50.652;12.216;2022-12-18T06:48:49;-11.00;44.70
148;DHT22;142;50.652;12.216;2022-12-18T06:51:18;-11.00;44.60
148;DHT22;142;50.652;12.216;2022-12-18T06:53:45;-11.00;44.70
148;DHT22;142;50.652;12.216;2022-12-18T06:56:13;-11.10;44.60
148;DHT22;142;50.652;12.216;2022-12-18T06:58:40;-11.10;44.60
148;DHT22;142;50.652;12.216;2022-12-18T07:01:09;-11.10;44.50
148;DHT22;142;50.652;12.216;2022-12-18T07:03:36;-11.10;44.60
148;DHT22;142;50.652;12.216;2022-12-18T07:06:05;-11.00;44.60
148;DHT22;142;50.652;12.216;2022-12-18T07:08:33;-11.10;44.70
148;DHT22;142;50.652;12.216;2022-12-18T07:11:03;-11.10;44.50
148;DHT22;142;50.652;12.216;2022-12-18T07:13:30;-11.10;44.60
148;DHT22;142;50.652;12.216;2022-12-18T07:16:04;-11.10;44.50
148;DHT22;142;50.652;12.216;2022-12-18T07:18:31;-11.10;44.60
148;DHT22;142;50.652;12.216;2022-12-18T07:21:04;-11.10;44.60
148;DHT22;142;50.652;12.216;2022-12-18T07:23:32;-11.00;44.50
148;DHT22;142;50.652;12.216;2022-12-18T07:26:03;-11.00;44.60
148;DHT22;142;50.652;12.216;2022-12-18T07:28:30;-11.00;44.70
148;DHT22;142;50.652;12.216;2022-12-18T07:30:57;-11.10;44.80
148;DHT22;142;50.652;12.216;2022-12-18T07:33:25;-11.10;44.60
148;DHT22;142;50.652;12.216;2022-12-18T07:35:52;-11.10;44.60
148;DHT22;142;50.652;12.216;2022-12-18T07:38:21;-11.00;44.60
148;DHT22;142;50.652;12.216;2022-12-18T07:40:49;-11.00;44.60
148;DHT22;142;50.652;12.216;2022-12-18T07:43:16;-11.00;44.60
148;DHT22;142;50.652;12.216;2022-12-18T07:45:44;-11.00;44.60
148;DHT22;142;50.652;12.216;2022-12-18T07:48:11;-11.00;44.60
148;DHT22;142;50.652;12.216;2022-12-18T07:50:38;-11.10;44.70
148;DHT22;142;50.652;12.216;2022-12-18T07:53:05;-11.20;44.60
148;DHT22;142;50.652;12.216;2022-12-18T07:55:34;-11.20;44.60
148;DHT22;142;50.652;12.216;2022-12-18T07:58:01;-11.20;44.50
148;DHT22;142;50.652;12.216;2022-12-18T08:00:29;-11.20;44.60
148;DHT22;142;50.652;12.216;2022-12-18T08:02:58;-11.20;44.60
148;DHT22;142;50.652;12.216;2022-12-18T08:05:25;-11.20;44.50
148;DHT22;142;50.652;12.216;2022-12-18T08:07:52;-11.10;44.50
148;DHT22;142;50.652;12.216;2022-12-18T08:10:20;-11.10;44.60
148;DHT22;142;50.652;12.216;2022-12-18T08:12:51;-11.00;44.50
148;DHT22;142;50.652;12.216;2022-12-18T08:15:21;-10.90;44.50
148;DHT22;142;50.652;12.216;2022-12-18T08:17:48;-10.90;44.50
148;DHT22;142;50.652;12.216;2022-12-18T08:20:15;-10.80;44.70
148;DHT22;142;50.652;12.216;2022-12-18T08:22:44;-10.80;44.60
148;DHT22;142;50.652;12.216;2022-12-18T08:25:11;-10.70;44.50
148;DHT22;142;50.652;12.216;2022-12-18T08:27:38;-10.60;44.50
148;DHT22;142;50.652;12.216;2022-12-18T08:30:08;-10.60;44.60
148;DHT22;142;50.652;12.216;2022-12-18T08:32:36;-10.60;44.60
148;DHT22;142;50.652;12.216;2022-12-18T08:35:04;-10.50;44.50
148;DHT22;142;50.652;12.216;2022-12-18T08:37:31;-10.50;44.50
148;DHT22;142;50.652;12.216;2022-12-18T08:39:59;-10.40;44.30
148;DHT22;142;50.652;12.216;2022-12-18T08:42:26;-10.30;44.40
148;DHT22;142;50.652;12.216;2022-12-18T08:45:12;-10.30;44.40
148;DHT22;142;50.652;12.216;2022-12-18T08:47:40;-10.20;44.30
148;DHT22;142;50.652;12.216;2022-12-18T08:50:08;-10.10;44.40
148;DHT22;142;50.652;12.216;2022-12-18T08:52:36;-10.00;44.40
148;DHT22;142;50.652;12.216;2022-12-18T08:55:05;-9.90;44.30
148;DHT22;142;50.652;12.216;2022-12-18T08:57:32;-9.80;44.40
148;DHT22;142;50.652;12.216;2022-12-18T08:59:59;-9.80;44.30
148;DHT22;142;50.652;12.216;2022-12-18T09:02:28;-9.70;44.30
148;DHT22;142;50.652;12.216;2022-12-18T09:04:56;-9.70;44.30
148;DHT22;142;50.652;12.216;2022-12-18T09:07:23;-9.70;44.20
148;DHT22;142;50.652;12.216;2022-12-18T09:09:50;-9.60;44.20
148;DHT22;142;50.652;12.216;2022-12-18T09:12:17;-9.40;44.20
148;DHT22;142;50.652;12.216;2022-12-18T09:14:45;-9.30;44.20
148;DHT22;142;50.652;12.216;2022-12-18T09:17:12;-9.20;44.20
148;DHT22;142;50.652;12.216;2022-12-18T09:19:41;-9.10;44.20
148;DHT22;142;50.652;12.216;2022-12-18T09:22:08;-9.00;44.10
148;DHT22;142;50.652;12.216;2022-12-18T09:24:36;-8.80;44.20
148;DHT22;142;50.652;12.216;2022-12-18T09:27:04;-8.70;44.10
148;DHT22;142;50.652;12.216;2022-12-18T09:29:32;-8.60;44.20
148;DHT22;142;50.652;12.216;2022-12-18T09:31:59;-8.40;44.20
148;DHT22;142;50.652;12.216;2022-12-18T09:34:26;-8.30;44.10
148;DHT22;142;50.652;12.216;2022-12-18T09:36:55;-8.20;44.20
148;DHT22;142;50.652;12.216;2022-12-18T09:39:22;-8.10;44.10
148;DHT22;142;50.652;12.216;2022-12-18T09:41:51;-8.00;44.10
148;DHT22;142;50.652;12.216;2022-12-18T09:44:23;-7.90;44.00
148;DHT22;142;50.652;12.216;2022-12-18T09:46:58;-7.70;44.00
148;DHT22;142;50.652;12.216;2022-12-18T09:49:28;-7.50;44.10
148;DHT22;142;50.652;12.216;2022-12-18T09:52:02;-7.40;43.90
148;DHT22;142;50.652;12.216;2022-12-18T09:54:35;-7.20;44.00
148;DHT22;142;50.652;12.216;2022-12-18T09:57:03;-7.10;44.00
148;DHT22;142;50.652;12.216;2022-12-18T09:59:34;-6.90;44.00
148;DHT22;142;50.652;12.216;2022-12-18T10:02:15;-6.90;44.00
148;DHT22;142;50.652;12.216;2022-12-18T10:04:45;-6.70;44.00
148;DHT22;142;50.652;12.216;2022-12-18T10:07:18;-6.60;44.00
148;DHT22;142;50.652;12.216;2022-12-18T10:09:53;-6.60;44.10
148;DHT22;142;50.652;12.216;2022-12-18T10:12:28;-6.50;43.90
148;DHT22;142;50.652;12.216;2022-12-18T10:15:01;-6.40;44.10
148;DHT22;142;50.652;12.216;2022-12-18T10:17:35;-6.30;44.10
148;DHT22;142;50.652;12.216;2022-12-18T10:20:12;-6.20;44.00
148;DHT22;142;50.652;12.216;2022-12-18T10:22:51;-6.10;43.90
148;DHT22;142;50.652;12.216;2022-12-18T10:25:22;-6.00;43.90
148;DHT22;142;50.652;12.216;2022-12-18T10:27:53;-5.90;43.90
148;DHT22;142;50.652;12.216;2022-12-18T10:30:23;-5.90;44.00
148;DHT22;142;50.652;12.216;2022-12-18T10:32:51;-5.80;44.00
148;DHT22;142;50.652;12.216;2022-12-18T10:35:21;-5.70;44.00
148;DHT22;142;50.652;12.216;2022-12-18T10:38:05;-5.60;43.90
148;DHT22;142;50.652;12.216;2022-12-18T10:40:36;-5.60;44.00
148;DHT22;142;50.652;12.216;2022-12-18T10:43:15;-5.50;43.90
148;DHT22;142;50.652;12.216;2022-12-18T10:46:00;-5.40;43.90
148;DHT22;142;50.652;12.216;2022-12-18T10:48:28;-5.30;43.90
148;DHT22;142;50.652;12.216;2022-12-18T10:50:57;-5.20;43.90
148;DHT22;142;50.652;12.216;2022-12-18T10:53:27;-5.20;43.80
148;DHT22;142;50.652;12.216;2022-12-18T10:56:02;-5.10;43.90
148;DHT22;142;50.652;12.216;2022-12-18T10:58:32;-5.00;43.90
148;DHT22;142;50.652;12.216;2022-12-18T11:01:06;-5.00;43.70
148;DHT22;142;50.652;12.216;2022-12-18T11:03:35;-4.80;43.80
148;DHT22;142;50.652;12.216;2022-12-18T11:06:07;-4.70;43.90
148;DHT22;142;50.652;12.216;2022-12-18T11:08:37;-4.50;43.90
148;DHT22;142;50.652;12.216;2022-12-18T11:11:07;-4.40;43.80
148;DHT22;142;50.652;12.216;2022-12-18T11:13:54;-4.30;43.80
148;DHT22;142;50.652;12.216;2022-12-18T11:16:24;-4.20;43.80
148;DHT22;142;50.652;12.216;2022-12-18T11:18:52;-4.10;43.80
148;DHT22;142;50.652;12.216;2022-12-18T11:21:19;-4.00;43.70
148;DHT22;142;50.652;12.216;2022-12-18T11:23:50;-3.90;43.60
148;DHT22;142;50.652;12.216;2022-12-18T11:26:18;-3.70;43.70
148;DHT22;142;50.652;12.216;2022-12-18T11:28:49;-3.60;43.70
148;DHT22;142;50.652;12.216;2022-12-18T11:31:20;-3.40;43.60
148;DHT22;142;50.652;12.216;2022-12-18T11:33:56;-3.20;43.50
148;DHT22;142;50.652;12.216;2022-12-18T11:36:26;-3.10;43.50
148;DHT22;142;50.652;12.216;2022-12-18T11:39:00;-3.00;43.50
148;DHT22;142;50.652;12.216;2022-12-18T11:41:34;-2.80;43.50
148;DHT22;142;50.652;12.216;2022-12-18T11:44:26;-2.70;43.40
148;DHT22;142;50.652;12.216;2022-12-18T11:46:59;-2.60;43.40
148;DHT22;142;50.652;12.216;2022-12-18T11:49:32;-2.50;43.20
148;DHT22;142;50.652;12.216;2022-12-18T11:52:04;-2.40;43.20
148;DHT22;142;50.652;12.216;2022-12-18T11:54:37;-2.30;43.20
148;DHT22;142;50.652;12.216;2022-12-18T11:57:10;-2.20;43.20
148;DHT22;142;50.652;12.216;2022-12-18T11:59:50;-2.10;43.10
148;DHT22;142;50.652;12.216;2022-12-18T12:05:21;-1.90;43.10
148;DHT22;142;50.652;12.216;2022-12-18T12:07:57;-1.70;43.10
148;DHT22;142;50.652;12.216;2022-12-18T12:10:38;-1.70;43.00
148;DHT22;142;50.652;12.216;2022-12-18T12:13:18;-1.70;42.80
148;DHT22;142;50.652;12.216;2022-12-18T12:15:55;-1.60;42.80
148;DHT22;142;50.652;12.216;2022-12-18T12:18:31;-1.50;43.00
148;DHT22;142;50.652;12.216;2022-12-18T12:21:06;-1.50;42.80
148;DHT22;142;50.652;12.216;2022-12-18T12:23:40;-1.40;42.80
148;DHT22;142;50.652;12.216;2022-12-18T12:26:16;-1.30;42.80
148;DHT22;142;50.652;12.216;2022-12-18T12:28:56;-1.30;42.70
148;DHT22;142;50.652;12.216;2022-12-18T12:31:36;-1.20;42.70
148;DHT22;142;50.652;12.216;2022-12-18T12:34:10;-1.10;42.70
148;DHT22;142;50.652;12.216;2022-12-18T12:36:51;-1.10;42.60
148;DHT22;142;50.652;12.216;2022-12-18T12:39:23;-1.10;42.40
148;DHT22;142;50.652;12.216;2022-12-18T12:41:54;-0.90;42.50
148;DHT22;142;50.652;12.216;2022-12-18T12:44:43;-0.80;42.50
148;DHT22;142;50.652;12.216;2022-12-18T12:47:14;-0.80;42.50
148;DHT22;142;50.652;12.216;2022-12-18T12:49:42;-0.80;42.30
148;DHT22;142;50.652;12.216;2022-12-18T12:52:20;-0.70;42.30
148;DHT22;142;50.652;12.216;2022-12-18T12:54:51;-0.70;42.20
148;DHT22;142;50.652;12.216;2022-12-18T12:57:22;-0.70;42.50
148;DHT22;142;50.652;12.216;2022-12-18T12:59:55;-0.60;42.00
148;DHT22;142;50.652;12.216;2022-12-18T13:02:30;-0.50;42.20
148;DHT22;142;50.652;12.216;2022-12-18T13:05:03;-0.50;42.30
148;DHT22;142;50.652;12.216;2022-12-18T13:07:37;-0.60;42.10
148;DHT22;142;50.652;12.216;2022-12-18T13:10:30;-0.70;41.90
148;DHT22;142;50.652;12.216;2022-12-18T13:13:01;-0.70;41.90
148;DHT22;142;50.652;12.216;2022-12-18T13:15:34;-0.70;42.10
148;DHT22;142;50.652;12.216;2022-12-18T13:18:16;-0.80;41.70
148;DHT22;142;50.652;12.216;2022-12-18T13:20:45;-0.80;41.90
148;DHT22;142;50.652;12.216;2022-12-18T13:23:28;-0.80;41.80
148;DHT22;142;50.652;12.216;2022-12-18T13:25:57;-0.80;42.00
148;DHT22;142;50.652;12.216;2022-12-18T13:28:50;-0.80;41.70
148;DHT22;142;50.652;12.216;2022-12-18T13:34:30;-0.80;41.80
148;DHT22;142;50.652;12.216;2022-12-18T13:43:41;-0.90;41.80
148;DHT22;142;50.652;12.216;2022-12-18T13:46:28;-0.90;41.80
148;DHT22;142;50.652;12.216;2022-12-18T13:48:58;-1.10;41.80
148;DHT22;142;50.652;12.216;2022-12-18T13:51:27;-1.30;41.80
148;DHT22;142;50.652;12.216;2022-12-18T13:53:58;-1.40;41.90
148;DHT22;142;50.652;12.216;2022-12-18T13:56:27;-1.40;41.80
148;DHT22;142;50.652;12.216;2022-12-18T13:59:19;-1.40;42.10
148;DHT22;142;50.652;12.216;2022-12-18T14:01:50;-1.50;42.10
148;DHT22;142;50.652;12.216;2022-12-18T14:04:24;-1.50;42.20
148;DHT22;142;50.652;12.216;2022-12-18T14:06:55;-1.50;42.10
148;DHT22;142;50.652;12.216;2022-12-18T14:09:26;-1.50;42.10
148;DHT22;142;50.652;12.216;2022-12-18T14:11:54;-1.60;42.10
148;DHT22;142;50.652;12.216;2022-12-18T14:14:44;-1.60;42.20
148;DHT22;142;50.652;12.216;2022-12-18T14:17:15;-1.70;42.20
148;DHT22;142;50.652;12.216;2022-12-18T14:19:44;-1.80;42.20
148;DHT22;142;50.652;12.216;2022-12-18T14:22:16;-1.80;42.30
148;DHT22;142;50.652;12.216;2022-12-18T14:24:44;-1.90;42.40
148;DHT22;142;50.652;12.216;2022-12-18T14:27:23;-1.90;42.50
148;DHT22;142;50.652;12.216;2022-12-18T14:29:50;-1.90;42.50
148;DHT22;142;50.652;12.216;2022-12-18T14:32:20;-2.00;42.60
148;DHT22;142;50.652;12.216;2022-12-18T14:34:49;-2.00;42.60
148;DHT22;142;50.652;12.216;2022-12-18T14:37:20;-2.10;42.60
148;DHT22;142;50.652;12.216;2022-12-18T14:39:55;-2.10;42.60
148;DHT22;142;50.652;12.216;2022-12-18T14:42:24;-2.20;42.60
148;DHT22;142;50.652;12.216;2022-12-18T14:47:55;-2.50;42.70
148;DHT22;142;50.652;12.216;2022-12-18T14:50:23;-2.50;42.60
148;DHT22;142;50.652;12.216;2022-12-18T14:52:50;-2.50;42.80
148;DHT22;142;50.652;12.216;2022-12-18T14:55:19;-2.60;42.80
148;DHT22;142;50.652;12.216;2022-12-18T14:57:50;-2.60;42.80
148;DHT22;142;50.652;12.216;2022-12-18T15:00:20;-2.70;42.80
148;DHT22;142;50.652;12.216;2022-12-18T15:02:50;-2.80;42.90
148;DHT22;142;50.652;12.216;2022-12-18T15:05:21;-2.80;43.00
148;DHT22;142;50.652;12.216;2022-12-18T15:07:52;-2.80;43.00
148;DHT22;142;50.652;12.216;2022-12-18T15:10:21;-2.90;43.00
148;DHT22;142;50.652;12.216;2022-12-18T15:12:49;-3.00;43.10
148;DHT22;142;50.652;12.216;2022-12-18T15:15:47;-3.00;43.10
148;DHT22;142;50.652;12.216;2022-12-18T15:18:15;-3.10;43.20
148;DHT22;142;50.652;12.216;2022-12-18T15:20:46;-3.00;43.20
148;DHT22;142;50.652;12.216;2022-12-18T15:23:20;-3.10;43.30
148;DHT22;142;50.652;12.216;2022-12-18T15:25:53;-3.10;43.30
148;DHT22;142;50.652;12.216;2022-12-18T15:28:23;-3.10;43.20
148;DHT22;142;50.652;12.216;2022-12-18T15:30:59;-3.00;43.30
148;DHT22;142;50.652;12.216;2022-12-18T15:33:30;-2.90;43.40
148;DHT22;142;50.652;12.216;2022-12-18T15:36:01;-2.90;43.40
148;DHT22;142;50.652;12.216;2022-12-18T15:38:29;-2.90;43.50
148;DHT22;142;50.652;12.216;2022-12-18T15:40:57;-3.00;43.30
148;DHT22;142;50.652;12.216;2022-12-18T15:43:25;-3.10;43.30
148;DHT22;142;50.652;12.216;2022-12-18T15:46:07;-3.20;43.40
148;DHT22;142;50.652;12.216;2022-12-18T15:48:39;-3.30;43.40
148;DHT22;142;50.652;12.216;2022-12-18T15:51:13;-3.30;43.40
148;DHT22;142;50.652;12.216;2022-12-18T15:53:41;-3.30;43.50
148;DHT22;142;50.652;12.216;2022-12-18T15:56:10;-3.40;43.40
148;DHT22;142;50.652;12.216;2022-12-18T15:58:55;-3.50;43.40
148;DHT22;142;50.652;12.216;2022-12-18T16:01:23;-3.50;43.40
148;DHT22;142;50.652;12.216;2022-12-18T16:03:51;-3.50;43.60
148;DHT22;142;50.652;12.216;2022-12-18T16:06:20;-3.50;43.60
148;DHT22;142;50.652;12.216;2022-12-18T16:08:48;-3.60;43.60
148;DHT22;142;50.652;12.216;2022-12-18T16:11:21;-3.60;43.70
148;DHT22;142;50.652;12.216;2022-12-18T16:14:04;-3.70;43.70
148;DHT22;142;50.652;12.216;2022-12-18T16:16:31;-3.60;43.70
148;DHT22;142;50.652;12.216;2022-12-18T16:18:59;-3.60;43.70
148;DHT22;142;50.652;12.216;2022-12-18T16:21:27;-3.60;43.80
148;DHT22;142;50.652;12.216;2022-12-18T16:23:54;-3.60;43.80
148;DHT22;142;50.652;12.216;2022-12-18T16:26:22;-3.50;43.80
148;DHT22;142;50.652;12.216;2022-12-18T16:28:49;-3.50;43.80
148;DHT22;142;50.652;12.216;2022-12-18T16:31:16;-3.40;43.80
148;DHT22;142;50.652;12.216;2022-12-18T16:33:43;-3.30;43.70
148;DHT22;142;50.652;12.216;2022-12-18T16:36:11;-3.20;43.70
148;DHT22;142;50.652;12.216;2022-12-18T16:38:39;-3.00;43.70
148;DHT22;142;50.652;12.216;2022-12-18T16:41:17;-2.80;43.70
148;DHT22;142;50.652;12.216;2022-12-18T16:44:01;-2.70;43.70
148;DHT22;142;50.652;12.216;2022-12-18T16:46:28;-2.60;43.60
148;DHT22;142;50.652;12.216;2022-12-18T16:48:57;-2.50;43.50
148;DHT22;142;50.652;12.216;2022-12-18T16:51:24;-2.40;43.30